Leszno, Polonia

2:44 PM CEST en Marzo 30, 2017 (GMT +0200)
Zatorze | | Change Station

Alt 318 ft 51.85 °N, 16.56 °E | Updated 11 seconds ago

Nublado
Nublado
55.8 ° F
Sensación térmica 55.8 ° F
N
4.1
Viento Variable Viento desde OSO
Gusts 6.0 mph

Hoy
Alta -- | Baja -- ° F
--% Posibilidad de precipitaciones
Ayer
Alta -- | Baja -- ° F
Precip. -- pul
Presión 30.27 pul
Visibilidad 2.5 Millas
Nubes Baja 600 ft
Nublado 1100 ft
Punto de rocío 51 ° F
Humedad 83%
Precipitaciones 0.00 pul
Espesor de la nieve No disponible.
6:33 AM 7:24 PM
Creciente, 8% visible
METAR EPZG 301230Z 16004KT 4000 BR FEW006 OVC011 12/11 Q1025
Presión 30.27 pul
Visibilidad 2.5 Millas
Nubes Baja 600 ft
Nublado 1100 ft
Punto de rocío 51 ° F
Humedad 83%
Precipitaciones 0.00 pul
Espesor de la nieve No disponible.
6:33 AM 7:24 PM
Creciente, 8% visible
METAR EPZG 301230Z 16004KT 4000 BR FEW006 OVC011 12/11 Q1025

Get Severe Weather Alerts

Thanks for signing up!

Be on the lookout for a verification email in your inbox.

You'll start receiving the daily forecast at 8 AM.

×

10-Day Weather Forecast

×

Almanac

Astronomía

Mar. 30, 2017 Salida Puesta
Hora real
Crepúsculo civil
Crepúsculo náutico
Crepúsculo astronómico
Luna
Horas de luz
Horas de luz
Tomorrow will be .
, % of the Moon is Illuminated

Extremos de hoy

Máximos del país Bajas del país

Community

WunderPhotos

Upload Photos

1,962,540 ¡fotos cargadas!

WunderBlog® & News

Nearby

Calidad del aire

  Calidad del aire Índice AQ Contaminante
Not available.

Grosos de nieve

Estación Profundido Altura

Actividad de terremotos

Ciudad Distance Mag. Tiempo y dato
Magnitud mínima muestra es 2,5.

Actividad de terremotos

Ciudad Distance Mag. Tiempo y dato
Magnitud mínima muestra es 2,5.

Temperaturas de aguas costeras

Lugar Temperatura

Stations

Estaciones meteorológicas cercanas

Ubicación de la estación Temp. Vientos helados Punto de rocío Humedad Viento Precip. Alt Actualizado Tipo